sensor_id;sensor_type;location;lat;lon;timestamp;pressure;altitude;pressure_sealevel;temperature;humidity
79625;BME280;69101;45.534;10.218;2023-05-10T00:00:40;99583.50;;;21.74;48.41
79625;BME280;69101;45.534;10.218;2023-05-10T00:03:06;99594.69;;;21.76;48.54
79625;BME280;69101;45.534;10.218;2023-05-10T00:05:32;99591.63;;;21.73;48.70
79625;BME280;69101;45.534;10.218;2023-05-10T00:07:57;99599.16;;;21.76;49.11
79625;BME280;69101;45.534;10.218;2023-05-10T00:10:23;99591.44;;;21.74;49.03
79625;BME280;69101;45.534;10.218;2023-05-10T00:12:48;99593.06;;;21.75;48.55
79625;BME280;69101;45.534;10.218;2023-05-10T00:15:13;99592.25;;;21.75;49.25
79625;BME280;69101;45.534;10.218;2023-05-10T00:17:40;99589.41;;;21.76;49.05
79625;BME280;69101;45.534;10.218;2023-05-10T00:20:07;99602.63;;;21.76;49.06
79625;BME280;69101;45.534;10.218;2023-05-10T00:22:33;99594.69;;;21.76;48.93
79625;BME280;69101;45.534;10.218;2023-05-10T00:25:00;99594.69;;;21.76;49.19
79625;BME280;69101;45.534;10.218;2023-05-10T00:27:25;99594.69;;;21.76;48.88
79625;BME280;69101;45.534;10.218;2023-05-10T00:29:50;99590.41;;;21.75;48.91
79625;BME280;69101;45.534;10.218;2023-05-10T00:32:16;99584.31;;;21.75;49.13
79625;BME280;69101;45.534;10.218;2023-05-10T00:34:42;99578.22;;;21.74;49.39
79625;BME280;69101;45.534;10.218;2023-05-10T00:37:08;99573.94;;;21.73;49.50
79625;BME280;69101;45.534;10.218;2023-05-10T00:39:33;99563.75;;;21.70;48.95
79625;BME280;69101;45.534;10.218;2023-05-10T00:41:58;99564.16;;;21.67;49.01
79625;BME280;69101;45.534;10.218;2023-05-10T00:44:24;99554.81;;;21.65;48.63
79625;BME280;69101;45.534;10.218;2023-05-10T00:46:50;99536.28;;;21.65;48.64
79625;BME280;69101;45.534;10.218;2023-05-10T00:49:16;99537.53;;;21.62;48.56
79625;BME280;69101;45.534;10.218;2023-05-10T00:51:41;99537.53;;;21.62;48.58
79625;BME280;69101;45.534;10.218;2023-05-10T00:54:10;99547.31;;;21.62;48.77
79625;BME280;69101;45.534;10.218;2023-05-10T00:56:36;99536.50;;;21.63;48.79
79625;BME280;69101;45.534;10.218;2023-05-10T00:59:02;99534.50;;;21.59;48.56
79625;BME280;69101;45.534;10.218;2023-05-10T01:01:28;99533.47;;;21.60;48.46
79625;BME280;69101;45.534;10.218;2023-05-10T01:03:54;99531.03;;;21.58;48.57
79625;BME280;69101;45.534;10.218;2023-05-10T01:06:20;99533.69;;;21.58;48.69
79625;BME280;69101;45.534;10.218;2023-05-10T01:08:46;99523.09;;;21.58;48.91
79625;BME280;69101;45.534;10.218;2023-05-10T01:11:12;99523.09;;;21.58;48.65
79625;BME280;69101;45.534;10.218;2023-05-10T01:13:39;99526.34;;;21.60;48.54
79625;BME280;69101;45.534;10.218;2023-05-10T01:16:06;99524.28;;;21.62;48.46
79625;BME280;69101;45.534;10.218;2023-05-10T01:18:41;99522.09;;;21.59;48.40
79625;BME280;69101;45.534;10.218;2023-05-10T01:21:14;99522.28;;;21.58;48.78
79625;BME280;69101;45.534;10.218;2023-05-10T01:34:07;99512.09;;;21.61;47.99
79625;BME280;69101;45.534;10.218;2023-05-10T01:36:46;99511.09;;;21.56;48.66
79625;BME280;69101;45.534;10.218;2023-05-10T01:39:17;99510.88;;;21.57;48.12
79625;BME280;69101;45.534;10.218;2023-05-10T01:42:11;99511.09;;;21.56;48.15
79625;BME280;69101;45.534;10.218;2023-05-10T01:47:08;99504.38;;;21.53;48.24
79625;BME280;69101;45.534;10.218;2023-05-10T01:49:40;99503.19;;;21.49;48.19
79625;BME280;69101;45.534;10.218;2023-05-10T01:52:10;99515.41;;;21.50;48.37
79625;BME280;69101;45.534;10.218;2023-05-10T01:54:41;99509.50;;;21.48;48.43
79625;BME280;69101;45.534;10.218;2023-05-10T01:57:08;99506.84;;;21.48;48.09
79625;BME280;69101;45.534;10.218;2023-05-10T01:59:38;99507.69;;;21.49;48.71
79625;BME280;69101;45.534;10.218;2023-05-10T02:02:06;99513.16;;;21.47;48.11
79625;BME280;69101;45.534;10.218;2023-05-10T02:04:33;99512.97;;;21.49;48.31
79625;BME280;69101;45.534;10.218;2023-05-10T02:07:00;99509.50;;;21.48;47.82
79625;BME280;69101;45.534;10.218;2023-05-10T02:09:27;99511.50;;;21.53;48.01
79625;BME280;69101;45.534;10.218;2023-05-10T02:11:55;99528.84;;;21.49;47.68
79625;BME280;69101;45.534;10.218;2023-05-10T02:14:24;99529.84;;;21.48;47.33
79625;BME280;69101;45.534;10.218;2023-05-10T02:16:52;99521.72;;;21.49;47.33
79625;BME280;69101;45.534;10.218;2023-05-10T02:19:19;99520.69;;;21.50;47.67
79625;BME280;69101;45.534;10.218;2023-05-10T02:21:46;99519.88;;;21.50;47.49
79625;BME280;69101;45.534;10.218;2023-05-10T02:24:11;99519.31;;;21.41;47.90
79625;BME280;69101;45.534;10.218;2023-05-10T02:26:38;99530.28;;;21.45;48.16
79625;BME280;69101;45.534;10.218;2023-05-10T02:29:04;99533.72;;;21.45;48.23
79625;BME280;69101;45.534;10.218;2023-05-10T02:31:32;99539.03;;;21.45;48.15
79625;BME280;69101;45.534;10.218;2023-05-10T02:33:59;99533.13;;;21.43;48.16
79625;BME280;69101;45.534;10.218;2023-05-10T02:36:26;99531.31;;;21.44;48.39
79625;BME280;69101;45.534;10.218;2023-05-10T02:38:53;99535.78;;;21.43;48.28
79625;BME280;69101;45.534;10.218;2023-05-10T02:41:20;99532.53;;;21.41;48.33
79625;BME280;69101;45.534;10.218;2023-05-10T02:43:50;99532.53;;;21.41;48.74
79625;BME280;69101;45.534;10.218;2023-05-10T02:46:15;99528.84;;;21.42;48.40
79625;BME280;69101;45.534;10.218;2023-05-10T02:48:41;99529.06;;;21.41;48.80
79625;BME280;69101;45.534;10.218;2023-05-10T02:51:07;99520.53;;;21.39;48.63
79625;BME280;69101;45.534;10.218;2023-05-10T02:53:36;99519.91;;;21.37;48.49
79625;BME280;69101;45.534;10.218;2023-05-10T02:56:04;99517.09;;;21.32;48.34
79625;BME280;69101;45.534;10.218;2023-05-10T02:58:32;99512.41;;;21.34;48.23
79625;BME280;69101;45.534;10.218;2023-05-10T03:00:57;99515.84;;;21.34;48.54
79625;BME280;69101;45.534;10.218;2023-05-10T03:03:23;99507.53;;;21.31;48.80
79625;BME280;69101;45.534;10.218;2023-05-10T03:05:48;99515.84;;;21.34;48.72
79625;BME280;69101;45.534;10.218;2023-05-10T03:08:14;99509.78;;;21.34;48.74
79625;BME280;69101;45.534;10.218;2023-05-10T03:10:55;99516.69;;;21.35;48.40
79625;BME280;69101;45.534;10.218;2023-05-10T03:13:37;99513.22;;;21.34;48.80
79625;BME280;69101;45.534;10.218;2023-05-10T03:16:08;99509.97;;;21.32;48.41
79625;BME280;69101;45.534;10.218;2023-05-10T03:18:50;99508.38;;;21.31;48.48
79625;BME280;69101;45.534;10.218;2023-05-10T03:21:22;99505.91;;;21.30;48.69
79625;BME280;69101;45.534;10.218;2023-05-10T03:23:56;99501.44;;;21.30;48.77
79625;BME280;69101;45.534;10.218;2023-05-10T03:26:26;99501.44;;;21.30;48.55
79625;BME280;69101;45.534;10.218;2023-05-10T03:28:53;99499.19;;;21.27;48.69
79625;BME280;69101;45.534;10.218;2023-05-10T03:31:18;99495.56;;;21.28;49.08
79625;BME280;69101;45.534;10.218;2023-05-10T03:33:52;99486.56;;;21.29;49.14
79625;BME280;69101;45.534;10.218;2023-05-10T03:36:18;99497.97;;;21.30;49.08
79625;BME280;69101;45.534;10.218;2023-05-10T03:38:43;99497.38;;;21.28;49.03
79625;BME280;69101;45.534;10.218;2023-05-10T03:41:09;99501.44;;;21.30;49.00
79625;BME280;69101;45.534;10.218;2023-05-10T03:43:34;99485.56;;;21.30;49.22
79625;BME280;69101;45.534;10.218;2023-05-10T03:46:03;99495.31;;;21.30;49.31
79625;BME280;69101;45.534;10.218;2023-05-10T03:48:28;99484.97;;;21.28;49.21
79625;BME280;69101;45.534;10.218;2023-05-10T03:50:53;99481.28;;;21.29;49.59
79625;BME280;69101;45.534;10.218;2023-05-10T03:53:19;99479.69;;;21.28;49.35
79625;BME280;69101;45.534;10.218;2023-05-10T03:55:44;99482.09;;;21.30;49.28
79625;BME280;69101;45.534;10.218;2023-05-10T03:58:13;99477.84;;;21.29;49.36
79625;BME280;69101;45.534;10.218;2023-05-10T04:00:38;99482.31;;;21.28;49.58
79625;BME280;69101;45.534;10.218;2023-05-10T04:03:08;99483.34;;;21.27;49.58
79625;BME280;69101;45.534;10.218;2023-05-10T04:05:34;99482.50;;;21.27;49.71
79625;BME280;69101;45.534;10.218;2023-05-10T04:08:00;99476.44;;;21.26;49.36
79625;BME280;69101;45.534;10.218;2023-05-10T04:10:25;99476.44;;;21.26;49.39
79625;BME280;69101;45.534;10.218;2023-05-10T04:12:50;99475.63;;;21.26;49.37
79625;BME280;69101;45.534;10.218;2023-05-10T04:15:16;99465.22;;;21.24;49.95
79625;BME280;69101;45.534;10.218;2023-05-10T04:17:41;99467.69;;;21.26;49.85
79625;BME280;69101;45.534;10.218;2023-05-10T04:20:07;99463.41;;;21.25;49.62
79625;BME280;69101;45.534;10.218;2023-05-10T04:22:33;99465.22;;;21.24;49.54
79625;BME280;69101;45.534;10.218;2023-05-10T04:24:58;99465.44;;;21.23;49.64
79625;BME280;69101;45.534;10.218;2023-05-10T04:27:24;99459.75;;;21.19;50.00
79625;BME280;69101;45.534;10.218;2023-05-10T04:29:49;99460.38;;;21.21;49.23
79625;BME280;69101;45.534;10.218;2023-05-10T04:32:15;99463.81;;;21.21;50.21
79625;BME280;69101;45.534;10.218;2023-05-10T04:34:42;99457.75;;;21.21;50.19
79625;BME280;69101;45.534;10.218;2023-05-10T04:37:08;99460.38;;;21.21;49.94
79625;BME280;69101;45.534;10.218;2023-05-10T04:39:33;99464.63;;;21.22;50.22
79625;BME280;69101;45.534;10.218;2023-05-10T04:41:59;99463.81;;;21.21;50.07
79625;BME280;69101;45.534;10.218;2023-05-10T04:44:24;99461.41;;;21.20;50.16
79625;BME280;69101;45.534;10.218;2023-05-10T04:46:49;99463.81;;;21.21;50.32
79625;BME280;69101;45.534;10.218;2023-05-10T04:49:15;99462.81;;;21.23;50.23
79625;BME280;69101;45.534;10.218;2023-05-10T04:51:40;99469.94;;;21.22;50.31
79625;BME280;69101;45.534;10.218;2023-05-10T04:54:05;99468.09;;;21.23;50.31
79625;BME280;69101;45.534;10.218;2023-05-10T04:56:31;99458.16;;;21.18;50.66
79625;BME280;69101;45.534;10.218;2023-05-10T04:58:56;99465.69;;;21.21;50.37
79625;BME280;69101;45.534;10.218;2023-05-10T05:01:22;99467.50;;;21.20;50.37
79625;BME280;69101;45.534;10.218;2023-05-10T05:03:48;99472.56;;;21.22;50.51
79625;BME280;69101;45.534;10.218;2023-05-10T05:06:13;99473.59;;;21.21;50.16
79625;BME280;69101;45.534;10.218;2023-05-10T05:08:39;99479.91;;;21.20;50.15
79625;BME280;69101;45.534;10.218;2023-05-10T05:11:04;99475.44;;;21.20;50.60
79625;BME280;69101;45.534;10.218;2023-05-10T05:13:29;99469.31;;;21.20;50.40
79625;BME280;69101;45.534;10.218;2023-05-10T05:15:55;99479.09;;;21.19;50.70
79625;BME280;69101;45.534;10.218;2023-05-10T05:18:20;99481.72;;;21.19;50.61
79625;BME280;69101;45.534;10.218;2023-05-10T05:20:46;99479.91;;;21.20;50.36
79625;BME280;69101;45.534;10.218;2023-05-10T05:23:11;99492.31;;;21.19;50.79
79625;BME280;69101;45.534;10.218;2023-05-10T05:25:36;99487.25;;;21.18;50.35
79625;BME280;69101;45.534;10.218;2023-05-10T05:28:02;99495.19;;;21.18;50.68
79625;BME280;69101;45.534;10.218;2023-05-10T05:30:27;99504.72;;;21.19;50.87
79625;BME280;69101;45.534;10.218;2023-05-10T05:32:52;99495.97;;;21.18;50.94
79625;BME280;69101;45.534;10.218;2023-05-10T05:35:18;99496.78;;;21.19;51.03
79625;BME280;69101;45.534;10.218;2023-05-10T05:37:43;99503.13;;;21.18;50.89
79625;BME280;69101;45.534;10.218;2023-05-10T05:40:12;99498.84;;;21.17;50.62
79625;BME280;69101;45.534;10.218;2023-05-10T05:42:38;99511.06;;;21.18;50.78
79625;BME280;69101;45.534;10.218;2023-05-10T05:45:03;99507.59;;;21.17;50.92
79625;BME280;69101;45.534;10.218;2023-05-10T05:47:29;99512.06;;;21.17;50.74
79625;BME280;69101;45.534;10.218;2023-05-10T05:49:54;99516.34;;;21.18;50.83
79625;BME280;69101;45.534;10.218;2023-05-10T05:52:20;99517.34;;;21.17;50.96
79625;BME280;69101;45.534;10.218;2023-05-10T05:54:46;99520.00;;;21.17;51.15
79625;BME280;69101;45.534;10.218;2023-05-10T05:57:11;99527.09;;;21.16;51.17
79625;BME280;69101;45.534;10.218;2023-05-10T05:59:37;99530.56;;;21.17;50.73
79625;BME280;69101;45.534;10.218;2023-05-10T06:02:07;99535.03;;;21.16;50.95
79625;BME280;69101;45.534;10.218;2023-05-10T06:04:33;99528.16;;;21.15;50.81
79625;BME280;69101;45.534;10.218;2023-05-10T06:06:58;99529.75;;;21.16;51.39
79625;BME280;69101;45.534;10.218;2023-05-10T06:09:23;99533.44;;;21.15;51.16
79625;BME280;69101;45.534;10.218;2023-05-10T06:11:49;99525.69;;;21.14;51.42
79625;BME280;69101;45.534;10.218;2023-05-10T06:14:15;99540.56;;;21.15;51.52
79625;BME280;69101;45.534;10.218;2023-05-10T06:16:40;99545.84;;;21.15;51.32
79625;BME280;69101;45.534;10.218;2023-05-10T06:19:05;99540.75;;;21.13;51.43
79625;BME280;69101;45.534;10.218;2023-05-10T06:21:31;99545.84;;;21.15;51.26
79625;BME280;69101;45.534;10.218;2023-05-10T06:23:56;99545.84;;;21.15;51.09
79625;BME280;69101;45.534;10.218;2023-05-10T06:26:22;99547.66;;;21.14;51.29
79625;BME280;69101;45.534;10.218;2023-05-10T06:28:47;99552.13;;;21.14;51.39
79625;BME280;69101;45.534;10.218;2023-05-10T06:31:13;99547.06;;;21.12;51.29
79625;BME280;69101;45.534;10.218;2023-05-10T06:33:38;99547.88;;;21.13;51.25
79625;BME280;69101;45.534;10.218;2023-05-10T06:36:04;99552.97;;;21.14;51.23
79625;BME280;69101;45.534;10.218;2023-05-10T06:38:29;99548.91;;;21.12;51.37
79625;BME280;69101;45.534;10.218;2023-05-10T06:40:54;99555.00;;;21.12;51.53
79625;BME280;69101;45.534;10.218;2023-05-10T06:43:20;99548.06;;;21.11;51.19
79625;BME280;69101;45.534;10.218;2023-05-10T06:45:45;99552.34;;;21.12;51.57
79625;BME280;69101;45.534;10.218;2023-05-10T06:48:11;99555.81;;;21.13;51.37
79625;BME280;69101;45.534;10.218;2023-05-10T06:50:36;99555.81;;;21.13;51.34
79625;BME280;69101;45.534;10.218;2023-05-10T06:53:02;99555.81;;;21.13;51.40
79625;BME280;69101;45.534;10.218;2023-05-10T06:55:27;99555.19;;;21.11;51.40
79625;BME280;69101;45.534;10.218;2023-05-10T06:57:53;99556.81;;;21.12;51.57
79625;BME280;69101;45.534;10.218;2023-05-10T07:00:19;99549.91;;;21.11;51.66
79625;BME280;69101;45.534;10.218;2023-05-10T07:02:45;99554.59;;;21.09;51.49
79625;BME280;69101;45.534;10.218;2023-05-10T07:05:11;99545.84;;;21.08;51.32
79625;BME280;69101;45.534;10.218;2023-05-10T07:07:37;99553.59;;;21.10;51.61
79625;BME280;69101;45.534;10.218;2023-05-10T07:10:03;99554.59;;;21.09;51.36
79625;BME280;69101;45.534;10.218;2023-05-10T07:12:28;99551.13;;;21.08;51.67
79625;BME280;69101;45.534;10.218;2023-05-10T07:14:54;99552.53;;;21.11;51.38
79625;BME280;69101;45.534;10.218;2023-05-10T07:17:19;99550.94;;;21.10;51.57
79625;BME280;69101;45.534;10.218;2023-05-10T07:19:45;99558.47;;;21.06;51.59
79625;BME280;69101;45.534;10.218;2023-05-10T07:22:10;99564.34;;;21.08;51.65
79625;BME280;69101;45.534;10.218;2023-05-10T07:24:35;99562.75;;;21.07;51.70
79625;BME280;69101;45.534;10.218;2023-05-10T07:27:01;99556.00;;;21.05;51.63
79625;BME280;69101;45.534;10.218;2023-05-10T07:29:26;99572.06;;;21.03;52.00
79625;BME280;69101;45.534;10.218;2023-05-10T07:31:52;99562.69;;;21.01;51.80
79625;BME280;69101;45.534;10.218;2023-05-10T07:34:17;99572.28;;;21.02;51.60
79625;BME280;69101;45.534;10.218;2023-05-10T07:36:43;99574.91;;;21.02;51.67
79625;BME280;69101;45.534;10.218;2023-05-10T07:39:08;99573.09;;;21.02;51.79
79625;BME280;69101;45.534;10.218;2023-05-10T07:41:34;99581.22;;;21.01;52.14
79625;BME280;69101;45.534;10.218;2023-05-10T07:44:00;99575.94;;;21.01;51.56
79625;BME280;69101;45.534;10.218;2023-05-10T07:46:25;99580.22;;;21.02;52.09
79625;BME280;69101;45.534;10.218;2023-05-10T07:48:50;99587.53;;;21.00;51.96
79625;BME280;69101;45.534;10.218;2023-05-10T07:51:16;99577.78;;;21.00;51.94
79625;BME280;69101;45.534;10.218;2023-05-10T07:53:41;99575.94;;;21.01;52.18
79625;BME280;69101;45.534;10.218;2023-05-10T07:56:26;99579.59;;;21.00;52.25
79625;BME280;69101;45.534;10.218;2023-05-10T07:59:04;99575.31;;;20.99;52.15
79625;BME280;69101;45.534;10.218;2023-05-10T08:01:34;99574.94;;;20.95;52.05
79625;BME280;69101;45.534;10.218;2023-05-10T08:04:00;99592.81;;;21.00;52.42
79625;BME280;69101;45.534;10.218;2023-05-10T08:06:27;99589.38;;;20.99;52.30
79625;BME280;69101;45.534;10.218;2023-05-10T08:08:53;99593.84;;;20.99;52.03
79625;BME280;69101;45.534;10.218;2023-05-10T08:11:30;99587.94;;;20.97;52.05
79625;BME280;69101;45.534;10.218;2023-05-10T08:13:58;99596.69;;;20.97;52.14
79625;BME280;69101;45.534;10.218;2023-05-10T08:16:23;99595.06;;;20.96;52.40
79625;BME280;69101;45.534;10.218;2023-05-10T08:18:49;99594.06;;;20.97;52.24
79625;BME280;69101;45.534;10.218;2023-05-10T08:21:15;99595.28;;;20.95;52.62
79625;BME280;69101;45.534;10.218;2023-05-10T08:23:41;99596.47;;;20.99;52.38
79625;BME280;69101;45.534;10.218;2023-05-10T08:26:08;99600.94;;;20.98;52.51
79625;BME280;69101;45.534;10.218;2023-05-10T08:28:33;99597.69;;;20.96;52.45
79625;BME280;69101;45.534;10.218;2023-05-10T08:30:59;99600.16;;;20.98;52.45
79625;BME280;69101;45.534;10.218;2023-05-10T08:33:25;99600.16;;;20.98;52.63
79625;BME280;69101;45.534;10.218;2023-05-10T08:35:50;99595.88;;;20.97;52.64
79625;BME280;69101;45.534;10.218;2023-05-10T08:38:15;99593.44;;;20.95;52.59
79625;BME280;69101;45.534;10.218;2023-05-10T08:40:42;99589.97;;;20.95;52.47
79625;BME280;69101;45.534;10.218;2023-05-10T08:43:11;99593.22;;;20.97;52.37
79625;BME280;69101;45.534;10.218;2023-05-10T08:45:41;99602.16;;;20.96;52.69
79625;BME280;69101;45.534;10.218;2023-05-10T08:48:08;99595.06;;;20.96;52.67
79625;BME280;69101;45.534;10.218;2023-05-10T08:50:38;99596.09;;;20.95;52.76
79625;BME280;69101;45.534;10.218;2023-05-10T08:53:14;99598.94;;;20.94;53.00
79625;BME280;69101;45.534;10.218;2023-05-10T08:55:40;99595.88;;;20.97;53.17
79625;BME280;69101;45.534;10.218;2023-05-10T08:58:07;99595.66;;;20.98;53.08
79625;BME280;69101;45.534;10.218;2023-05-10T09:00:33;99595.66;;;20.98;53.14
79625;BME280;69101;45.534;10.218;2023-05-10T09:03:01;99601.75;;;20.99;53.25
79625;BME280;69101;45.534;10.218;2023-05-10T09:05:27;99591.78;;;21.01;53.26
79625;BME280;69101;45.534;10.218;2023-05-10T09:07:52;99593.84;;;20.99;53.25
79625;BME280;69101;45.534;10.218;2023-05-10T09:10:19;99597.06;;;21.01;53.30
79625;BME280;69101;45.534;10.218;2023-05-10T09:12:45;99598.72;;;21.02;53.40
79625;BME280;69101;45.534;10.218;2023-05-10T09:15:15;99596.88;;;21.02;53.38
79625;BME280;69101;45.534;10.218;2023-05-10T09:17:40;99592.44;;;21.03;53.59
79625;BME280;69101;45.534;10.218;2023-05-10T09:20:07;99601.78;;;21.05;53.66
79625;BME280;69101;45.534;10.218;2023-05-10T09:22:33;99598.31;;;21.05;53.58
79625;BME280;69101;45.534;10.218;2023-05-10T09:25:11;99598.94;;;21.07;53.53
79625;BME280;69101;45.534;10.218;2023-05-10T09:27:38;99604.22;;;21.07;53.57
79625;BME280;69101;45.534;10.218;2023-05-10T09:30:04;99591.00;;;21.07;53.60
79625;BME280;69101;45.534;10.218;2023-05-10T09:32:37;99589.19;;;21.07;53.60
79625;BME280;69101;45.534;10.218;2023-05-10T09:35:13;99589.19;;;21.07;53.65
79625;BME280;69101;45.534;10.218;2023-05-10T09:37:39;99583.91;;;21.07;53.39
79625;BME280;69101;45.534;10.218;2023-05-10T09:40:12;99596.31;;;21.07;53.57
79625;BME280;69101;45.534;10.218;2023-05-10T09:42:38;99586.31;;;21.09;53.56
79625;BME280;69101;45.534;10.218;2023-05-10T09:45:04;99587.75;;;21.11;53.94
79625;BME280;69101;45.534;10.218;2023-05-10T09:47:34;99584.91;;;21.13;53.59
79625;BME280;69101;45.534;10.218;2023-05-10T09:50:02;99594.06;;;21.10;53.53
79625;BME280;69101;45.534;10.218;2023-05-10T09:52:30;99584.09;;;21.12;53.58
79625;BME280;69101;45.534;10.218;2023-05-10T09:54:55;99586.53;;;21.14;53.99
79625;BME280;69101;45.534;10.218;2023-05-10T09:57:22;99582.25;;;21.13;53.72
79625;BME280;69101;45.534;10.218;2023-05-10T09:59:48;99583.28;;;21.12;53.80
79625;BME280;69101;45.534;10.218;2023-05-10T10:02:14;99585.69;;;21.13;53.53
79625;BME280;69101;45.534;10.218;2023-05-10T10:04:40;99575.75;;;21.15;53.75
79625;BME280;69101;45.534;10.218;2023-05-10T10:07:06;99582.03;;;21.14;53.65
79625;BME280;69101;45.534;10.218;2023-05-10T10:09:32;99579.19;;;21.16;53.69
79625;BME280;69101;45.534;10.218;2023-05-10T10:11:59;99573.09;;;21.15;53.72
79625;BME280;69101;45.534;10.218;2023-05-10T10:14:25;99573.09;;;21.15;53.75
79625;BME280;69101;45.534;10.218;2023-05-10T10:16:51;99573.50;;;21.12;53.81
79625;BME280;69101;45.534;10.218;2023-05-10T10:19:18;99573.28;;;21.14;53.69
79625;BME280;69101;45.534;10.218;2023-05-10T10:21:44;99577.56;;;21.15;54.04
79625;BME280;69101;45.534;10.218;2023-05-10T10:24:09;99579.00;;;21.17;53.84
79625;BME280;69101;45.534;10.218;2023-05-10T10:26:35;99578.41;;;21.15;53.54
79625;BME280;69101;45.534;10.218;2023-05-10T10:29:16;99575.53;;;21.17;53.78
79625;BME280;69101;45.534;10.218;2023-05-10T10:31:47;99587.75;;;21.18;53.75
79625;BME280;69101;45.534;10.218;2023-05-10T10:34:26;99582.47;;;21.18;53.98
79625;BME280;69101;45.534;10.218;2023-05-10T10:36:54;99572.66;;;21.18;54.00
79625;BME280;69101;45.534;10.218;2023-05-10T10:39:19;99575.53;;;21.17;53.70
79625;BME280;69101;45.534;10.218;2023-05-10T10:41:53;99591.19;;;21.18;53.76
79625;BME280;69101;45.534;10.218;2023-05-10T10:50:05;99576.75;;;21.21;53.68
79625;BME280;69101;45.534;10.218;2023-05-10T10:52:41;99574.13;;;21.21;53.62
79625;BME280;69101;45.534;10.218;2023-05-10T10:55:09;99577.78;;;21.20;53.67
79625;BME280;69101;45.534;10.218;2023-05-10T11:02:45;99574.31;;;21.19;53.62
79625;BME280;69101;45.534;10.218;2023-05-10T11:05:34;99575.13;;;21.20;53.53
79625;BME280;69101;45.534;10.218;2023-05-10T11:10:35;99568.81;;;21.21;53.54
79625;BME280;69101;45.534;10.218;2023-05-10T11:13:09;99569.44;;;21.23;53.65
79625;BME280;69101;45.534;10.218;2023-05-10T11:15:39;99563.31;;;21.23;53.57
79625;BME280;69101;45.534;10.218;2023-05-10T11:18:26;99570.84;;;21.26;53.47
79625;BME280;69101;45.534;10.218;2023-05-10T11:20:58;99565.75;;;21.24;53.51
79625;BME280;69101;45.534;10.218;2023-05-10T11:23:30;99565.97;;;21.23;53.42
79625;BME280;69101;45.534;10.218;2023-05-10T11:25:56;99564.94;;;21.24;53.42
79625;BME280;69101;45.534;10.218;2023-05-10T11:28:21;99555.38;;;21.23;53.39
79625;BME280;69101;45.534;10.218;2023-05-10T11:30:46;99550.91;;;21.23;53.49
79625;BME280;69101;45.534;10.218;2023-05-10T11:33:17;99560.44;;;21.24;53.23
79625;BME280;69101;45.534;10.218;2023-05-10T11:35:43;99551.91;;;21.22;53.29
79625;BME280;69101;45.534;10.218;2023-05-10T11:38:09;99550.91;;;21.23;53.40
79625;BME280;69101;45.534;10.218;2023-05-10T11:40:35;99565.75;;;21.24;53.33
79625;BME280;69101;45.534;10.218;2023-05-10T11:43:01;99560.44;;;21.24;53.36
79625;BME280;69101;45.534;10.218;2023-05-10T11:45:26;99563.09;;;21.24;53.45
79625;BME280;69101;45.534;10.218;2023-05-10T11:47:54;99562.31;;;21.24;53.38
79625;BME280;69101;45.534;10.218;2023-05-10T11:50:20;99554.16;;;21.25;53.39
79625;BME280;69101;45.534;10.218;2023-05-10T11:52:45;99561.28;;;21.25;53.15
79625;BME280;69101;45.534;10.218;2023-05-10T11:55:11;99566.56;;;21.25;53.33
79625;BME280;69101;45.534;10.218;2023-05-10T11:57:37;99558.63;;;21.25;53.31
79625;BME280;69101;45.534;10.218;2023-05-10T12:00:04;99563.91;;;21.25;53.28
79625;BME280;69101;45.534;10.218;2023-05-10T12:02:30;99565.75;;;21.24;53.32
79625;BME280;69101;45.534;10.218;2023-05-10T12:04:55;99568.38;;;21.24;53.21
79625;BME280;69101;45.534;10.218;2023-05-10T12:07:21;99565.75;;;21.24;53.33
79625;BME280;69101;45.534;10.218;2023-05-10T12:10:06;99559.44;;;21.25;53.22
79625;BME280;69101;45.534;10.218;2023-05-10T12:12:42;99559.44;;;21.25;53.24
79625;BME280;69101;45.534;10.218;2023-05-10T12:15:12;99571.03;;;21.24;53.15
79625;BME280;69101;45.534;10.218;2023-05-10T12:17:43;99560.44;;;21.24;53.22
79625;BME280;69101;45.534;10.218;2023-05-10T12:20:23;99560.25;;;21.26;53.16
79625;BME280;69101;45.534;10.218;2023-05-10T12:22:50;99559.44;;;21.25;52.95
79625;BME280;69101;45.534;10.218;2023-05-10T12:25:18;99563.91;;;21.25;53.23
79625;BME280;69101;45.534;10.218;2023-05-10T12:27:53;99565.56;;;21.26;52.67
79625;BME280;69101;45.534;10.218;2023-05-10T12:30:23;99560.44;;;21.24;53.13
79625;BME280;69101;45.534;10.218;2023-05-10T12:32:49;99569.44;;;21.23;53.28
79625;BME280;69101;45.534;10.218;2023-05-10T12:35:15;99573.69;;;21.24;53.20
79625;BME280;69101;45.534;10.218;2023-05-10T12:37:42;99559.66;;;21.24;53.05
79625;BME280;69101;45.534;10.218;2023-05-10T12:40:09;99563.91;;;21.25;53.25
79625;BME280;69101;45.534;10.218;2023-05-10T12:42:36;99569.22;;;21.25;53.04
79625;BME280;69101;45.534;10.218;2023-05-10T12:45:04;99569.22;;;21.25;52.86
79625;BME280;69101;45.534;10.218;2023-05-10T12:47:30;99568.38;;;21.24;53.16
79625;BME280;69101;45.534;10.218;2023-05-10T12:49:56;99573.91;;;21.23;53.11
79625;BME280;69101;45.534;10.218;2023-05-10T12:52:21;99569.44;;;21.23;53.17
79625;BME280;69101;45.534;10.218;2023-05-10T12:54:47;99577.38;;;21.23;53.16
79625;BME280;69101;45.534;10.218;2023-05-10T12:57:13;99568.38;;;21.24;53.17
79625;BME280;69101;45.534;10.218;2023-05-10T12:59:38;99570.44;;;21.22;53.11
79625;BME280;69101;45.534;10.218;2023-05-10T13:02:03;99567.78;;;21.22;53.25
79625;BME280;69101;45.534;10.218;2023-05-10T13:04:29;99572.06;;;21.23;53.18
79625;BME280;69101;45.534;10.218;2023-05-10T13:06:54;99565.75;;;21.24;53.16
79625;BME280;69101;45.534;10.218;2023-05-10T13:09:23;99575.31;;;21.25;53.44
79625;BME280;69101;45.534;10.218;2023-05-10T13:11:50;99575.31;;;21.25;53.54
79625;BME280;69101;45.534;10.218;2023-05-10T13:14:15;99568.38;;;21.24;53.70
79625;BME280;69101;45.534;10.218;2023-05-10T13:16:41;99571.03;;;21.24;53.69